sensor_id;sensor_type;location;lat;lon;timestamp;P1;durP1;ratioP1;P2;durP2;ratioP2
50495;SDS011;38806;51.554;5.704;2023-12-29T00:01:43;6.15;;;1.73;;
50495;SDS011;38806;51.554;5.704;2023-12-29T00:03:44;9.90;;;1.67;;
50495;SDS011;38806;51.554;5.704;2023-12-29T00:05:44;8.07;;;2.90;;
50495;SDS011;38806;51.554;5.704;2023-12-29T00:07:44;8.25;;;3.67;;
50495;SDS011;38806;51.554;5.704;2023-12-29T00:09:44;6.70;;;2.10;;
50495;SDS011;38806;51.554;5.704;2023-12-29T00:11:46;16.10;;;2.00;;
50495;SDS011;38806;51.554;5.704;2023-12-29T00:13:47;9.52;;;2.92;;
50495;SDS011;38806;51.554;5.704;2023-12-29T00:15:47;8.80;;;2.30;;
50495;SDS011;38806;51.554;5.704;2023-12-29T00:17:50;8.85;;;2.33;;
50495;SDS011;38806;51.554;5.704;2023-12-29T00:19:52;8.40;;;2.47;;
50495;SDS011;38806;51.554;5.704;2023-12-29T00:21:53;6.55;;;2.35;;
50495;SDS011;38806;51.554;5.704;2023-12-29T00:23:53;14.15;;;3.42;;
50495;SDS011;38806;51.554;5.704;2023-12-29T00:25:54;4.77;;;1.80;;
50495;SDS011;38806;51.554;5.704;2023-12-29T00:27:54;5.85;;;2.05;;
50495;SDS011;38806;51.554;5.704;2023-12-29T00:29:54;6.23;;;1.60;;
50495;SDS011;38806;51.554;5.704;2023-12-29T00:31:54;15.48;;;2.70;;
50495;SDS011;38806;51.554;5.704;2023-12-29T00:33:54;5.70;;;2.22;;
50495;SDS011;38806;51.554;5.704;2023-12-29T00:35:55;8.27;;;1.85;;
50495;SDS011;38806;51.554;5.704;2023-12-29T00:37:55;7.03;;;2.10;;
50495;SDS011;38806;51.554;5.704;2023-12-29T00:39:55;8.93;;;2.33;;
50495;SDS011;38806;51.554;5.704;2023-12-29T00:41:55;12.80;;;4.73;;
50495;SDS011;38806;51.554;5.704;2023-12-29T00:43:58;4.30;;;1.30;;
50495;SDS011;38806;51.554;5.704;2023-12-29T00:46:00;4.65;;;1.90;;
50495;SDS011;38806;51.554;5.704;2023-12-29T00:48:00;8.00;;;3.65;;
50495;SDS011;38806;51.554;5.704;2023-12-29T00:50:01;7.20;;;2.17;;
50495;SDS011;38806;51.554;5.704;2023-12-29T00:52:01;10.10;;;3.17;;
50495;SDS011;38806;51.554;5.704;2023-12-29T00:54:02;7.93;;;1.98;;
50495;SDS011;38806;51.554;5.704;2023-12-29T00:56:09;7.35;;;1.83;;
50495;SDS011;38806;51.554;5.704;2023-12-29T00:58:09;10.13;;;1.70;;
50495;SDS011;38806;51.554;5.704;2023-12-29T01:00:10;7.57;;;1.73;;
50495;SDS011;38806;51.554;5.704;2023-12-29T01:02:11;9.95;;;2.40;;
50495;SDS011;38806;51.554;5.704;2023-12-29T01:04:11;10.30;;;2.15;;
50495;SDS011;38806;51.554;5.704;2023-12-29T01:06:11;6.18;;;1.67;;
50495;SDS011;38806;51.554;5.704;2023-12-29T01:08:11;17.33;;;3.08;;
50495;SDS011;38806;51.554;5.704;2023-12-29T01:10:12;11.75;;;2.13;;
50495;SDS011;38806;51.554;5.704;2023-12-29T01:12:12;12.55;;;2.47;;
50495;SDS011;38806;51.554;5.704;2023-12-29T01:14:12;9.55;;;2.22;;
50495;SDS011;38806;51.554;5.704;2023-12-29T01:16:13;7.22;;;2.13;;
50495;SDS011;38806;51.554;5.704;2023-12-29T01:18:13;12.27;;;2.58;;
50495;SDS011;38806;51.554;5.704;2023-12-29T01:20:13;6.93;;;2.50;;
50495;SDS011;38806;51.554;5.704;2023-12-29T01:22:13;7.05;;;1.83;;
50495;SDS011;38806;51.554;5.704;2023-12-29T01:24:14;5.70;;;1.77;;
50495;SDS011;38806;51.554;5.704;2023-12-29T01:26:14;12.18;;;3.13;;
50495;SDS011;38806;51.554;5.704;2023-12-29T01:28:15;5.55;;;1.77;;
50495;SDS011;38806;51.554;5.704;2023-12-29T01:30:15;9.88;;;2.75;;
50495;SDS011;38806;51.554;5.704;2023-12-29T01:32:15;7.47;;;2.78;;
50495;SDS011;38806;51.554;5.704;2023-12-29T01:34:15;13.80;;;2.17;;
50495;SDS011;38806;51.554;5.704;2023-12-29T01:36:18;10.50;;;4.65;;
50495;SDS011;38806;51.554;5.704;2023-12-29T01:38:19;10.55;;;3.00;;
50495;SDS011;38806;51.554;5.704;2023-12-29T01:40:19;7.80;;;2.78;;
50495;SDS011;38806;51.554;5.704;2023-12-29T01:42:19;10.35;;;2.85;;
50495;SDS011;38806;51.554;5.704;2023-12-29T01:44:20;8.57;;;3.10;;
50495;SDS011;38806;51.554;5.704;2023-12-29T01:46:21;12.85;;;3.50;;
50495;SDS011;38806;51.554;5.704;2023-12-29T01:48:22;7.28;;;2.72;;
50495;SDS011;38806;51.554;5.704;2023-12-29T01:50:22;9.40;;;2.80;;
50495;SDS011;38806;51.554;5.704;2023-12-29T01:52:23;12.38;;;3.10;;
50495;SDS011;38806;51.554;5.704;2023-12-29T01:54:24;11.48;;;3.15;;
50495;SDS011;38806;51.554;5.704;2023-12-29T01:56:25;8.25;;;3.90;;
50495;SDS011;38806;51.554;5.704;2023-12-29T01:58:26;11.32;;;4.10;;
50495;SDS011;38806;51.554;5.704;2023-12-29T02:00:26;20.88;;;4.40;;
50495;SDS011;38806;51.554;5.704;2023-12-29T02:02:26;12.77;;;3.33;;
50495;SDS011;38806;51.554;5.704;2023-12-29T02:04:27;8.60;;;3.38;;
50495;SDS011;38806;51.554;5.704;2023-12-29T02:06:27;8.93;;;3.78;;
50495;SDS011;38806;51.554;5.704;2023-12-29T02:08:28;10.05;;;3.78;;
50495;SDS011;38806;51.554;5.704;2023-12-29T02:10:28;9.93;;;3.20;;
50495;SDS011;38806;51.554;5.704;2023-12-29T02:12:29;13.65;;;4.45;;
50495;SDS011;38806;51.554;5.704;2023-12-29T02:14:29;10.82;;;4.45;;
50495;SDS011;38806;51.554;5.704;2023-12-29T02:18:49;9.05;;;3.47;;
50495;SDS011;38806;51.554;5.704;2023-12-29T02:20:50;9.68;;;4.28;;
50495;SDS011;38806;51.554;5.704;2023-12-29T02:22:50;8.93;;;2.65;;
50495;SDS011;38806;51.554;5.704;2023-12-29T02:24:50;11.52;;;3.85;;
50495;SDS011;38806;51.554;5.704;2023-12-29T02:26:52;9.68;;;2.90;;
50495;SDS011;38806;51.554;5.704;2023-12-29T02:28:56;7.28;;;2.72;;
50495;SDS011;38806;51.554;5.704;2023-12-29T02:31:00;8.82;;;2.63;;
50495;SDS011;38806;51.554;5.704;2023-12-29T02:33:01;10.23;;;4.07;;
50495;SDS011;38806;51.554;5.704;2023-12-29T02:35:02;7.80;;;3.78;;
50495;SDS011;38806;51.554;5.704;2023-12-29T02:37:02;7.72;;;3.30;;
50495;SDS011;38806;51.554;5.704;2023-12-29T02:39:03;9.77;;;3.00;;
50495;SDS011;38806;51.554;5.704;2023-12-29T02:41:03;6.07;;;2.22;;
50495;SDS011;38806;51.554;5.704;2023-12-29T02:43:03;17.63;;;3.13;;
50495;SDS011;38806;51.554;5.704;2023-12-29T02:45:04;16.55;;;3.50;;
50495;SDS011;38806;51.554;5.704;2023-12-29T02:47:04;9.52;;;2.70;;
50495;SDS011;38806;51.554;5.704;2023-12-29T02:49:05;8.55;;;2.28;;
50495;SDS011;38806;51.554;5.704;2023-12-29T02:51:05;13.30;;;3.05;;
50495;SDS011;38806;51.554;5.704;2023-12-29T02:53:05;8.52;;;2.67;;
50495;SDS011;38806;51.554;5.704;2023-12-29T02:55:06;16.52;;;4.97;;
50495;SDS011;38806;51.554;5.704;2023-12-29T02:57:06;9.25;;;2.75;;
50495;SDS011;38806;51.554;5.704;2023-12-29T02:59:06;13.05;;;2.88;;
50495;SDS011;38806;51.554;5.704;2023-12-29T03:01:06;9.90;;;4.10;;
50495;SDS011;38806;51.554;5.704;2023-12-29T03:03:06;18.10;;;3.30;;
50495;SDS011;38806;51.554;5.704;2023-12-29T03:05:07;7.18;;;2.20;;
50495;SDS011;38806;51.554;5.704;2023-12-29T03:07:07;9.85;;;2.53;;
50495;SDS011;38806;51.554;5.704;2023-12-29T03:09:07;7.53;;;3.28;;
50495;SDS011;38806;51.554;5.704;2023-12-29T03:11:07;9.02;;;3.63;;
50495;SDS011;38806;51.554;5.704;2023-12-29T03:13:08;16.02;;;2.20;;
50495;SDS011;38806;51.554;5.704;2023-12-29T03:15:08;8.07;;;2.53;;
50495;SDS011;38806;51.554;5.704;2023-12-29T03:17:08;6.68;;;1.85;;
50495;SDS011;38806;51.554;5.704;2023-12-29T03:19:09;10.40;;;3.50;;
50495;SDS011;38806;51.554;5.704;2023-12-29T03:21:09;9.02;;;1.92;;
50495;SDS011;38806;51.554;5.704;2023-12-29T03:23:09;8.60;;;3.67;;
50495;SDS011;38806;51.554;5.704;2023-12-29T03:25:09;7.53;;;2.30;;
50495;SDS011;38806;51.554;5.704;2023-12-29T03:27:10;15.48;;;1.92;;
50495;SDS011;38806;51.554;5.704;2023-12-29T03:29:10;12.38;;;1.92;;
50495;SDS011;38806;51.554;5.704;2023-12-29T03:31:10;4.10;;;2.35;;
50495;SDS011;38806;51.554;5.704;2023-12-29T03:33:11;6.40;;;2.50;;
50495;SDS011;38806;51.554;5.704;2023-12-29T03:35:11;11.02;;;4.43;;
50495;SDS011;38806;51.554;5.704;2023-12-29T03:37:11;9.65;;;1.90;;
50495;SDS011;38806;51.554;5.704;2023-12-29T03:39:11;7.40;;;2.13;;
50495;SDS011;38806;51.554;5.704;2023-12-29T03:41:12;14.00;;;3.33;;
50495;SDS011;38806;51.554;5.704;2023-12-29T03:43:12;7.50;;;2.60;;
50495;SDS011;38806;51.554;5.704;2023-12-29T03:45:12;5.15;;;1.80;;
50495;SDS011;38806;51.554;5.704;2023-12-29T03:47:12;9.15;;;2.38;;
50495;SDS011;38806;51.554;5.704;2023-12-29T03:49:12;10.60;;;2.87;;
50495;SDS011;38806;51.554;5.704;2023-12-29T03:51:13;11.55;;;2.67;;
50495;SDS011;38806;51.554;5.704;2023-12-29T03:53:14;13.90;;;2.95;;
50495;SDS011;38806;51.554;5.704;2023-12-29T03:55:15;9.70;;;2.45;;
50495;SDS011;38806;51.554;5.704;2023-12-29T03:57:15;11.38;;;2.55;;
50495;SDS011;38806;51.554;5.704;2023-12-29T03:59:16;4.32;;;1.55;;
50495;SDS011;38806;51.554;5.704;2023-12-29T04:01:16;10.18;;;2.05;;
50495;SDS011;38806;51.554;5.704;2023-12-29T04:03:17;9.95;;;2.30;;
50495;SDS011;38806;51.554;5.704;2023-12-29T04:05:17;9.15;;;1.80;;
50495;SDS011;38806;51.554;5.704;2023-12-29T04:07:17;7.47;;;2.40;;
50495;SDS011;38806;51.554;5.704;2023-12-29T04:09:17;7.60;;;2.42;;
50495;SDS011;38806;51.554;5.704;2023-12-29T04:11:17;6.70;;;2.28;;
50495;SDS011;38806;51.554;5.704;2023-12-29T04:13:18;7.60;;;2.80;;
50495;SDS011;38806;51.554;5.704;2023-12-29T04:15:18;9.80;;;2.50;;
50495;SDS011;38806;51.554;5.704;2023-12-29T04:17:18;7.75;;;2.78;;
50495;SDS011;38806;51.554;5.704;2023-12-29T04:19:18;5.53;;;2.95;;
50495;SDS011;38806;51.554;5.704;2023-12-29T04:21:18;7.10;;;2.67;;
50495;SDS011;38806;51.554;5.704;2023-12-29T04:23:18;6.65;;;2.25;;
50495;SDS011;38806;51.554;5.704;2023-12-29T04:25:19;8.45;;;3.28;;
50495;SDS011;38806;51.554;5.704;2023-12-29T04:27:19;6.63;;;1.83;;
50495;SDS011;38806;51.554;5.704;2023-12-29T04:29:19;10.25;;;1.98;;
50495;SDS011;38806;51.554;5.704;2023-12-29T04:31:20;9.60;;;2.17;;
50495;SDS011;38806;51.554;5.704;2023-12-29T04:33:20;10.73;;;2.60;;
50495;SDS011;38806;51.554;5.704;2023-12-29T04:35:20;10.48;;;2.38;;
50495;SDS011;38806;51.554;5.704;2023-12-29T04:37:20;11.05;;;3.75;;
50495;SDS011;38806;51.554;5.704;2023-12-29T04:39:20;10.48;;;4.13;;
50495;SDS011;38806;51.554;5.704;2023-12-29T04:41:21;11.83;;;2.80;;
50495;SDS011;38806;51.554;5.704;2023-12-29T04:43:21;11.13;;;3.45;;
50495;SDS011;38806;51.554;5.704;2023-12-29T04:45:21;6.15;;;1.90;;
50495;SDS011;38806;51.554;5.704;2023-12-29T04:47:21;5.65;;;2.08;;
50495;SDS011;38806;51.554;5.704;2023-12-29T04:49:21;12.18;;;2.33;;
50495;SDS011;38806;51.554;5.704;2023-12-29T04:51:22;15.85;;;4.13;;
50495;SDS011;38806;51.554;5.704;2023-12-29T04:53:22;7.53;;;2.80;;
50495;SDS011;38806;51.554;5.704;2023-12-29T04:55:22;11.27;;;4.53;;
50495;SDS011;38806;51.554;5.704;2023-12-29T04:57:22;9.50;;;2.05;;
50495;SDS011;38806;51.554;5.704;2023-12-29T04:59:22;6.95;;;1.98;;
50495;SDS011;38806;51.554;5.704;2023-12-29T05:01:22;16.35;;;4.10;;
50495;SDS011;38806;51.554;5.704;2023-12-29T05:03:23;7.30;;;2.85;;
50495;SDS011;38806;51.554;5.704;2023-12-29T05:05:23;7.75;;;2.65;;
50495;SDS011;38806;51.554;5.704;2023-12-29T05:07:23;13.90;;;3.13;;
50495;SDS011;38806;51.554;5.704;2023-12-29T05:09:24;11.43;;;2.80;;
50495;SDS011;38806;51.554;5.704;2023-12-29T05:11:24;7.50;;;2.97;;
50495;SDS011;38806;51.554;5.704;2023-12-29T05:13:24;7.53;;;2.17;;
50495;SDS011;38806;51.554;5.704;2023-12-29T05:15:24;10.35;;;2.83;;
50495;SDS011;38806;51.554;5.704;2023-12-29T05:17:24;8.25;;;3.60;;
50495;SDS011;38806;51.554;5.704;2023-12-29T05:19:24;7.65;;;2.75;;
50495;SDS011;38806;51.554;5.704;2023-12-29T05:21:25;12.40;;;3.35;;
50495;SDS011;38806;51.554;5.704;2023-12-29T05:23:26;8.68;;;3.10;;
50495;SDS011;38806;51.554;5.704;2023-12-29T05:25:26;5.55;;;2.53;;
50495;SDS011;38806;51.554;5.704;2023-12-29T05:27:27;12.15;;;2.95;;
50495;SDS011;38806;51.554;5.704;2023-12-29T05:29:27;12.85;;;3.53;;
50495;SDS011;38806;51.554;5.704;2023-12-29T05:31:27;8.10;;;2.25;;
50495;SDS011;38806;51.554;5.704;2023-12-29T05:33:27;7.00;;;2.70;;
50495;SDS011;38806;51.554;5.704;2023-12-29T05:35:27;12.63;;;2.47;;
50495;SDS011;38806;51.554;5.704;2023-12-29T05:37:28;17.27;;;3.72;;
50495;SDS011;38806;51.554;5.704;2023-12-29T05:39:28;9.52;;;2.65;;
50495;SDS011;38806;51.554;5.704;2023-12-29T05:41:29;11.10;;;2.75;;
50495;SDS011;38806;51.554;5.704;2023-12-29T05:43:30;12.70;;;3.70;;
50495;SDS011;38806;51.554;5.704;2023-12-29T05:45:30;13.57;;;2.58;;
50495;SDS011;38806;51.554;5.704;2023-12-29T05:47:30;11.60;;;2.40;;
50495;SDS011;38806;51.554;5.704;2023-12-29T05:49:31;6.63;;;2.95;;
50495;SDS011;38806;51.554;5.704;2023-12-29T05:51:32;11.02;;;4.60;;
50495;SDS011;38806;51.554;5.704;2023-12-29T05:53:32;9.68;;;2.65;;
50495;SDS011;38806;51.554;5.704;2023-12-29T05:55:32;9.00;;;2.35;;
50495;SDS011;38806;51.554;5.704;2023-12-29T05:57:32;9.25;;;2.85;;
50495;SDS011;38806;51.554;5.704;2023-12-29T05:59:33;10.50;;;2.78;;
50495;SDS011;38806;51.554;5.704;2023-12-29T06:01:33;7.93;;;2.25;;
50495;SDS011;38806;51.554;5.704;2023-12-29T06:03:33;12.80;;;4.25;;
50495;SDS011;38806;51.554;5.704;2023-12-29T06:05:33;6.65;;;2.00;;
50495;SDS011;38806;51.554;5.704;2023-12-29T06:07:33;10.68;;;2.60;;
50495;SDS011;38806;51.554;5.704;2023-12-29T06:09:34;9.05;;;2.53;;
50495;SDS011;38806;51.554;5.704;2023-12-29T06:11:34;9.52;;;1.95;;
50495;SDS011;38806;51.554;5.704;2023-12-29T06:13:34;9.70;;;3.47;;
50495;SDS011;38806;51.554;5.704;2023-12-29T06:15:34;11.95;;;2.25;;
50495;SDS011;38806;51.554;5.704;2023-12-29T06:17:36;11.10;;;3.20;;
50495;SDS011;38806;51.554;5.704;2023-12-29T06:19:36;10.13;;;2.25;;
50495;SDS011;38806;51.554;5.704;2023-12-29T06:21:42;14.05;;;3.65;;
50495;SDS011;38806;51.554;5.704;2023-12-29T06:23:43;11.68;;;2.15;;
50495;SDS011;38806;51.554;5.704;2023-12-29T06:25:44;9.23;;;1.90;;
50495;SDS011;38806;51.554;5.704;2023-12-29T06:27:44;11.43;;;2.17;;
50495;SDS011;38806;51.554;5.704;2023-12-29T06:29:44;10.10;;;2.58;;
50495;SDS011;38806;51.554;5.704;2023-12-29T06:31:45;7.55;;;2.47;;
50495;SDS011;38806;51.554;5.704;2023-12-29T06:33:45;10.98;;;2.35;;
50495;SDS011;38806;51.554;5.704;2023-12-29T06:35:45;11.13;;;2.55;;
50495;SDS011;38806;51.554;5.704;2023-12-29T06:37:45;10.23;;;3.05;;
50495;SDS011;38806;51.554;5.704;2023-12-29T06:39:46;8.70;;;3.50;;
50495;SDS011;38806;51.554;5.704;2023-12-29T06:41:46;10.13;;;2.35;;
50495;SDS011;38806;51.554;5.704;2023-12-29T06:43:46;10.93;;;2.63;;
50495;SDS011;38806;51.554;5.704;2023-12-29T06:45:47;10.68;;;4.05;;
50495;SDS011;38806;51.554;5.704;2023-12-29T06:47:47;8.52;;;2.08;;
50495;SDS011;38806;51.554;5.704;2023-12-29T06:49:47;8.23;;;2.90;;
50495;SDS011;38806;51.554;5.704;2023-12-29T06:51:48;7.30;;;2.42;;
50495;SDS011;38806;51.554;5.704;2023-12-29T06:53:48;7.97;;;3.75;;
50495;SDS011;38806;51.554;5.704;2023-12-29T06:55:49;6.00;;;2.47;;
50495;SDS011;38806;51.554;5.704;2023-12-29T06:57:49;9.13;;;2.63;;
50495;SDS011;38806;51.554;5.704;2023-12-29T06:59:49;5.55;;;1.83;;
50495;SDS011;38806;51.554;5.704;2023-12-29T07:01:50;7.43;;;1.88;;
50495;SDS011;38806;51.554;5.704;2023-12-29T07:03:51;7.88;;;2.20;;
50495;SDS011;38806;51.554;5.704;2023-12-29T07:05:51;9.85;;;2.80;;
50495;SDS011;38806;51.554;5.704;2023-12-29T07:07:51;5.97;;;1.70;;
50495;SDS011;38806;51.554;5.704;2023-12-29T07:09:52;7.43;;;2.40;;
50495;SDS011;38806;51.554;5.704;2023-12-29T07:11:52;9.38;;;2.40;;
50495;SDS011;38806;51.554;5.704;2023-12-29T07:13:52;3.47;;;1.58;;
50495;SDS011;38806;51.554;5.704;2023-12-29T07:15:53;8.25;;;1.90;;
50495;SDS011;38806;51.554;5.704;2023-12-29T07:17:53;9.35;;;1.77;;
50495;SDS011;38806;51.554;5.704;2023-12-29T07:19:53;7.68;;;3.15;;
50495;SDS011;38806;51.554;5.704;2023-12-29T07:21:53;11.10;;;2.35;;
50495;SDS011;38806;51.554;5.704;2023-12-29T07:23:53;4.97;;;2.45;;
50495;SDS011;38806;51.554;5.704;2023-12-29T07:25:54;4.38;;;1.38;;
50495;SDS011;38806;51.554;5.704;2023-12-29T07:27:54;11.77;;;2.38;;
50495;SDS011;38806;51.554;5.704;2023-12-29T07:29:54;5.55;;;2.20;;
50495;SDS011;38806;51.554;5.704;2023-12-29T07:31:54;8.90;;;2.60;;
50495;SDS011;38806;51.554;5.704;2023-12-29T07:33:55;11.38;;;1.95;;
50495;SDS011;38806;51.554;5.704;2023-12-29T07:35:55;7.57;;;1.90;;
50495;SDS011;38806;51.554;5.704;2023-12-29T07:37:55;8.48;;;2.15;;
50495;SDS011;38806;51.554;5.704;2023-12-29T07:39:55;7.38;;;1.45;;
50495;SDS011;38806;51.554;5.704;2023-12-29T07:41:56;11.05;;;1.85;;
50495;SDS011;38806;51.554;5.704;2023-12-29T07:43:56;4.70;;;1.55;;
50495;SDS011;38806;51.554;5.704;2023-12-29T07:45:56;7.20;;;1.90;;
50495;SDS011;38806;51.554;5.704;2023-12-29T07:47:56;7.35;;;2.20;;
50495;SDS011;38806;51.554;5.704;2023-12-29T07:49:57;11.77;;;1.70;;
50495;SDS011;38806;51.554;5.704;2023-12-29T07:51:57;8.50;;;1.70;;
50495;SDS011;38806;51.554;5.704;2023-12-29T07:53:59;10.73;;;3.67;;
50495;SDS011;38806;51.554;5.704;2023-12-29T07:55:59;8.65;;;1.88;;
50495;SDS011;38806;51.554;5.704;2023-12-29T07:57:59;12.93;;;2.50;;
50495;SDS011;38806;51.554;5.704;2023-12-29T08:00:00;6.97;;;3.03;;
50495;SDS011;38806;51.554;5.704;2023-12-29T08:02:00;6.72;;;1.67;;
50495;SDS011;38806;51.554;5.704;2023-12-29T08:04:01;6.45;;;1.67;;
50495;SDS011;38806;51.554;5.704;2023-12-29T08:06:01;16.42;;;3.65;;
50495;SDS011;38806;51.554;5.704;2023-12-29T08:08:01;7.65;;;2.20;;
50495;SDS011;38806;51.554;5.704;2023-12-29T08:10:01;6.88;;;1.83;;
50495;SDS011;38806;51.554;5.704;2023-12-29T08:12:04;13.65;;;2.22;;
50495;SDS011;38806;51.554;5.704;2023-12-29T08:14:04;6.47;;;2.40;;
50495;SDS011;38806;51.554;5.704;2023-12-29T08:16:06;5.50;;;2.10;;
50495;SDS011;38806;51.554;5.704;2023-12-29T08:18:08;8.23;;;2.35;;
50495;SDS011;38806;51.554;5.704;2023-12-29T08:20:08;5.85;;;1.88;;
50495;SDS011;38806;51.554;5.704;2023-12-29T08:22:09;9.07;;;2.22;;
50495;SDS011;38806;51.554;5.704;2023-12-29T08:24:09;6.60;;;1.80;;
50495;SDS011;38806;51.554;5.704;2023-12-29T08:26:09;5.50;;;1.45;;
50495;SDS011;38806;51.554;5.704;2023-12-29T08:28:10;7.95;;;1.80;;
50495;SDS011;38806;51.554;5.704;2023-12-29T08:30:10;9.27;;;3.05;;
50495;SDS011;38806;51.554;5.704;2023-12-29T08:32:10;8.38;;;2.97;;
50495;SDS011;38806;51.554;5.704;2023-12-29T08:34:10;8.23;;;2.00;;
50495;SDS011;38806;51.554;5.704;2023-12-29T08:36:11;4.32;;;1.10;;
50495;SDS011;38806;51.554;5.704;2023-12-29T08:38:12;3.60;;;1.20;;
50495;SDS011;38806;51.554;5.704;2023-12-29T08:40:12;5.20;;;2.00;;
50495;SDS011;38806;51.554;5.704;2023-12-29T08:42:12;5.00;;;2.33;;
50495;SDS011;38806;51.554;5.704;2023-12-29T08:44:12;8.23;;;1.17;;
50495;SDS011;38806;51.554;5.704;2023-12-29T08:46:13;4.28;;;1.15;;
50495;SDS011;38806;51.554;5.704;2023-12-29T08:48:13;5.10;;;1.92;;
50495;SDS011;38806;51.554;5.704;2023-12-29T08:50:13;5.30;;;1.30;;
50495;SDS011;38806;51.554;5.704;2023-12-29T08:52:15;3.40;;;0.93;;
50495;SDS011;38806;51.554;5.704;2023-12-29T08:54:15;4.30;;;1.30;;
50495;SDS011;38806;51.554;5.704;2023-12-29T08:56:15;4.50;;;1.67;;
50495;SDS011;38806;51.554;5.704;2023-12-29T08:58:15;3.92;;;1.55;;
50495;SDS011;38806;51.554;5.704;2023-12-29T09:00:15;2.42;;;0.90;;
50495;SDS011;38806;51.554;5.704;2023-12-29T09:02:16;6.18;;;2.22;;
50495;SDS011;38806;51.554;5.704;2023-12-29T09:04:16;6.90;;;1.05;;
50495;SDS011;38806;51.554;5.704;2023-12-29T09:06:16;4.18;;;2.22;;
50495;SDS011;38806;51.554;5.704;2023-12-29T09:08:16;3.85;;;0.75;;
50495;SDS011;38806;51.554;5.704;2023-12-29T09:10:17;2.53;;;0.95;;
50495;SDS011;38806;51.554;5.704;2023-12-29T09:12:17;2.92;;;1.17;;
50495;SDS011;38806;51.554;5.704;2023-12-29T09:14:18;6.28;;;1.20;;
50495;SDS011;38806;51.554;5.704;2023-12-29T09:16:18;2.10;;;1.05;;
50495;SDS011;38806;51.554;5.704;2023-12-29T09:18:18;2.50;;;0.85;;
50495;SDS011;38806;51.554;5.704;2023-12-29T09:20:18;3.92;;;0.77;;
50495;SDS011;38806;51.554;5.704;2023-12-29T09:22:18;9.00;;;1.17;;
50495;SDS011;38806;51.554;5.704;2023-12-29T09:24:19;3.72;;;1.27;;
50495;SDS011;38806;51.554;5.704;2023-12-29T09:26:19;6.93;;;1.15;;
50495;SDS011;38806;51.554;5.704;2023-12-29T09:28:19;7.00;;;0.80;;
50495;SDS011;38806;51.554;5.704;2023-12-29T09:30:19;6.22;;;1.00;;
50495;SDS011;38806;51.554;5.704;2023-12-29T09:32:22;1.50;;;0.77;;
50495;SDS011;38806;51.554;5.704;2023-12-29T09:34:22;6.20;;;1.48;;
50495;SDS011;38806;51.554;5.704;2023-12-29T09:36:22;3.95;;;1.17;;
50495;SDS011;38806;51.554;5.704;2023-12-29T09:38:23;14.07;;;1.67;;
50495;SDS011;38806;51.554;5.704;2023-12-29T09:40:23;1.95;;;0.73;;
50495;SDS011;38806;51.554;5.704;2023-12-29T09:42:23;6.82;;;0.80;;
50495;SDS011;38806;51.554;5.704;2023-12-29T09:44:24;3.15;;;0.88;;
50495;SDS011;38806;51.554;5.704;2023-12-29T09:46:25;4.97;;;0.73;;
50495;SDS011;38806;51.554;5.704;2023-12-29T09:48:26;2.78;;;0.80;;
50495;SDS011;38806;51.554;5.704;2023-12-29T09:50:27;3.47;;;1.25;;
50495;SDS011;38806;51.554;5.704;2023-12-29T09:52:27;4.75;;;0.65;;
50495;SDS011;38806;51.554;5.704;2023-12-29T09:54:27;2.00;;;0.85;;
50495;SDS011;38806;51.554;5.704;2023-12-29T09:56:28;3.70;;;1.15;;
50495;SDS011;38806;51.554;5.704;2023-12-29T09:58:28;3.65;;;0.98;;
50495;SDS011;38806;51.554;5.704;2023-12-29T10:00:28;5.45;;;2.08;;
50495;SDS011;38806;51.554;5.704;2023-12-29T10:02:29;4.97;;;0.88;;
50495;SDS011;38806;51.554;5.704;2023-12-29T10:04:30;2.20;;;0.65;;
50495;SDS011;38806;51.554;5.704;2023-12-29T10:06:31;1.35;;;0.60;;
50495;SDS011;38806;51.554;5.704;2023-12-29T10:08:34;3.88;;;0.98;;
50495;SDS011;38806;51.554;5.704;2023-12-29T10:10:36;2.13;;;0.88;;
50495;SDS011;38806;51.554;5.704;2023-12-29T10:12:38;1.48;;;0.40;;
50495;SDS011;38806;51.554;5.704;2023-12-29T10:16:45;3.03;;;0.60;;
50495;SDS011;38806;51.554;5.704;2023-12-29T10:23:31;4.60;;;1.42;;
50495;SDS011;38806;51.554;5.704;2023-12-29T10:25:32;3.42;;;0.95;;
50495;SDS011;38806;51.554;5.704;2023-12-29T10:27:32;1.73;;;0.50;;
50495;SDS011;38806;51.554;5.704;2023-12-29T10:29:33;2.28;;;0.68;;
50495;SDS011;38806;51.554;5.704;2023-12-29T10:31:33;1.45;;;0.55;;
50495;SDS011;38806;51.554;5.704;2023-12-29T10:33:34;3.17;;;0.60;;
50495;SDS011;38806;51.554;5.704;2023-12-29T10:35:34;1.15;;;0.50;;
50495;SDS011;38806;51.554;5.704;2023-12-29T10:37:36;3.10;;;0.60;;
50495;SDS011;38806;51.554;5.704;2023-12-29T10:39:36;3.28;;;0.80;;
50495;SDS011;38806;51.554;5.704;2023-12-29T10:41:36;0.60;;;0.30;;
50495;SDS011;38806;51.554;5.704;2023-12-29T10:43:37;1.73;;;0.45;;
50495;SDS011;38806;51.554;5.704;2023-12-29T10:45:38;5.57;;;0.60;;
50495;SDS011;38806;51.554;5.704;2023-12-29T10:47:38;1.65;;;0.52;;
50495;SDS011;38806;51.554;5.704;2023-12-29T10:49:43;1.35;;;0.40;;
50495;SDS011;38806;51.554;5.704;2023-12-29T10:51:43;1.63;;;0.52;;
50495;SDS011;38806;51.554;5.704;2023-12-29T10:53:44;2.03;;;0.50;;
50495;SDS011;38806;51.554;5.704;2023-12-29T10:55:54;2.35;;;0.60;;
50495;SDS011;38806;51.554;5.704;2023-12-29T10:57:59;1.77;;;0.75;;
50495;SDS011;38806;51.554;5.704;2023-12-29T11:00:00;3.47;;;0.57;;
50495;SDS011;38806;51.554;5.704;2023-12-29T11:02:00;3.95;;;0.70;;
50495;SDS011;38806;51.554;5.704;2023-12-29T11:04:04;1.98;;;1.13;;
50495;SDS011;38806;51.554;5.704;2023-12-29T11:06:04;3.65;;;0.88;;
50495;SDS011;38806;51.554;5.704;2023-12-29T11:08:05;4.00;;;0.93;;
50495;SDS011;38806;51.554;5.704;2023-12-29T11:10:14;3.95;;;1.02;;
50495;SDS011;38806;51.554;5.704;2023-12-29T11:12:14;5.53;;;1.05;;
50495;SDS011;38806;51.554;5.704;2023-12-29T11:14:14;3.75;;;1.10;;
50495;SDS011;38806;51.554;5.704;2023-12-29T11:16:15;2.90;;;1.08;;
50495;SDS011;38806;51.554;5.704;2023-12-29T11:18:17;3.72;;;1.10;;
50495;SDS011;38806;51.554;5.704;2023-12-29T11:20:17;3.38;;;0.98;;
50495;SDS011;38806;51.554;5.704;2023-12-29T11:22:17;4.30;;;1.00;;
50495;SDS011;38806;51.554;5.704;2023-12-29T11:24:18;3.60;;;1.08;;
50495;SDS011;38806;51.554;5.704;2023-12-29T11:26:18;6.70;;;2.13;;
50495;SDS011;38806;51.554;5.704;2023-12-29T11:28:18;10.57;;;2.25;;
50495;SDS011;38806;51.554;5.704;2023-12-29T11:30:19;8.25;;;1.45;;
50495;SDS011;38806;51.554;5.704;2023-12-29T11:32:20;8.40;;;1.45;;
50495;SDS011;38806;51.554;5.704;2023-12-29T11:34:26;10.52;;;1.75;;
50495;SDS011;38806;51.554;5.704;2023-12-29T11:36:30;4.13;;;1.30;;
50495;SDS011;38806;51.554;5.704;2023-12-29T11:38:44;7.10;;;1.65;;
50495;SDS011;38806;51.554;5.704;2023-12-29T11:40:48;6.78;;;2.97;;
50495;SDS011;38806;51.554;5.704;2023-12-29T11:42:51;6.38;;;1.88;;
50495;SDS011;38806;51.554;5.704;2023-12-29T11:44:53;6.60;;;1.98;;
50495;SDS011;38806;51.554;5.704;2023-12-29T11:46:53;4.05;;;1.48;;
50495;SDS011;38806;51.554;5.704;2023-12-29T11:48:56;5.80;;;2.00;;
50495;SDS011;38806;51.554;5.704;2023-12-29T11:50:57;8.75;;;2.35;;
50495;SDS011;38806;51.554;5.704;2023-12-29T11:52:57;3.00;;;1.10;;
50495;SDS011;38806;51.554;5.704;2023-12-29T11:55:06;3.25;;;1.45;;
50495;SDS011;38806;51.554;5.704;2023-12-29T11:57:07;5.40;;;1.25;;
50495;SDS011;38806;51.554;5.704;2023-12-29T11:59:21;7.32;;;1.80;;
50495;SDS011;38806;51.554;5.704;2023-12-29T12:01:33;8.57;;;1.85;;
50495;SDS011;38806;51.554;5.704;2023-12-29T12:03:35;5.60;;;1.65;;
50495;SDS011;38806;51.554;5.704;2023-12-29T12:05:48;3.80;;;1.30;;
50495;SDS011;38806;51.554;5.704;2023-12-29T12:12:14;6.07;;;1.88;;
50495;SDS011;38806;51.554;5.704;2023-12-29T12:14:42;7.47;;;2.25;;
50495;SDS011;38806;51.554;5.704;2023-12-29T12:18:40;5.80;;;1.30;;
50495;SDS011;38806;51.554;5.704;2023-12-29T12:20:41;4.63;;;1.40;;